Time;durP1;ratioP1;P1;durP2;ratioP2;P2;SDS_P1;SDS_P2;PMS_P1;PMS_P2;Temp;Humidity;BMP_temperature;BMP_pressure;BME280_temperature;BME280_humidity;BME280_pressure;Samples;Min_cycle;Max_cycle;Signal;HPM_P1;HPM_P2
2021/12/11 00:00:22;;;;;;;11.02;5.10;;;;;;;;;;5076126;28;20017;-67
2021/12/11 00:02:57;;;;;;;12.27;5.25;;;;;;;;;;5075939;28;20056;-71
2021/12/11 00:05:23;;;;;;;11.80;4.65;;;;;;;;;;5075672;28;20021;-70
2021/12/11 00:07:49;;;;;;;11.13;4.63;;;;;;;;;;5075645;28;20031;-64
2021/12/11 00:10:20;;;;;;;13.05;5.30;;;;;;;;;;5075838;28;20028;-71
2021/12/11 00:12:53;;;;;;;22.45;4.85;;;;;;;;;;5075895;28;20020;-70
2021/12/11 00:15:24;;;;;;;17.58;5.07;;;;;;;;;;5057917;28;20032;-70
2021/12/11 00:17:56;;;;;;;17.70;4.70;;;;;;;;;;5074347;28;20091;-70
2021/12/11 00:20:24;;;;;;;10.13;5.00;;;;;;;;;;5057588;28;20021;-71
2021/12/11 00:22:51;;;;;;;9.85;5.05;;;;;;;;;;5089364;28;20301;-64
2021/12/11 00:25:17;;;;;;;11.52;4.85;;;;;;;;;;5096098;28;20024;-70
2021/12/11 00:27:45;;;;;;;11.70;4.80;;;;;;;;;;5095200;28;20099;-65
2021/12/11 00:30:18;;;;;;;8.52;4.80;;;;;;;;;;5095324;28;20490;-68
2021/12/11 00:32:44;;;;;;;10.85;5.30;;;;;;;;;;5095697;28;20150;-71
2021/12/11 00:35:12;;;;;;;11.93;4.22;;;;;;;;;;5095748;28;20028;-68
2021/12/11 00:37:39;;;;;;;8.82;4.13;;;;;;;;;;5093920;28;20407;-70
2021/12/11 00:40:15;;;;;;;10.25;4.20;;;;;;;;;;5095589;28;20024;-70
2021/12/11 00:42:47;;;;;;;7.60;4.35;;;;;;;;;;5095247;28;20020;-70
2021/12/11 00:45:22;;;;;;;8.65;4.07;;;;;;;;;;5095388;28;20024;-69
2021/12/11 00:47:50;;;;;;;10.75;4.15;;;;;;;;;;5095478;28;20059;-70
2021/12/11 00:50:17;;;;;;;8.23;4.28;;;;;;;;;;5095530;28;20103;-71
2021/12/11 00:52:48;;;;;;;9.43;4.32;;;;;;;;;;5094179;28;20046;-71
2021/12/11 00:55:23;;;;;;;8.63;4.13;;;;;;;;;;5095774;28;20028;-72
2021/12/11 00:57:50;;;;;;;11.38;4.40;;;;;;;;;;5094859;28;20043;-68
2021/12/11 01:00:20;;;;;;;6.05;4.18;;;;;;;;;;5076664;28;20024;-64
2021/12/11 01:02:46;;;;;;;11.52;3.90;;;;;;;;;;5094805;28;20031;-68
2021/12/11 01:05:12;;;;;;;5.30;3.88;;;;;;;;;;5076989;28;20036;-66
2021/12/11 01:07:40;;;;;;;9.05;3.97;;;;;;;;;;5094951;28;20028;-70
2021/12/11 01:10:23;;;;;;;6.82;4.20;;;;;;;;;;5094614;28;20034;-65
2021/12/11 01:12:56;;;;;;;6.63;4.03;;;;;;;;;;5094372;28;20364;-64
2021/12/11 01:15:44;;;;;;;7.60;3.90;;;;;;;;;;5094396;28;20761;-67
2021/12/11 01:18:22;;;;;;;4.47;3.70;;;;;;;;;;5092438;28;20051;-64
2021/12/11 01:20:59;;;;;;;4.97;3.72;;;;;;;;;;5091731;28;20463;-65
2021/12/11 01:25:56;;;;;;;8.82;3.58;;;;;;;;;;5093409;28;20035;-66
2021/12/11 01:28:22;;;;;;;8.77;4.20;;;;;;;;;;5094061;28;20021;-66
2021/12/11 01:30:48;;;;;;;6.47;3.90;;;;;;;;;;5091459;28;20073;-68
2021/12/11 01:33:15;;;;;;;5.65;3.85;;;;;;;;;;5075591;28;20367;-69
2021/12/11 01:35:41;;;;;;;6.72;4.05;;;;;;;;;;5094228;28;20051;-69
2021/12/11 01:38:12;;;;;;;9.55;4.22;;;;;;;;;;5093928;28;20032;-64
2021/12/11 01:40:39;;;;;;;9.48;4.35;;;;;;;;;;5094037;28;20051;-70
2021/12/11 01:43:06;;;;;;;5.70;3.90;;;;;;;;;;5094064;28;20111;-67
2021/12/11 01:45:33;;;;;;;6.70;3.85;;;;;;;;;;5094303;28;20023;-69
2021/12/11 01:47:59;;;;;;;10.25;4.03;;;;;;;;;;5093729;28;20133;-65
2021/12/11 01:50:27;;;;;;;10.07;4.32;;;;;;;;;;5093471;28;20494;-66
2021/12/11 01:52:53;;;;;;;8.68;4.30;;;;;;;;;;5093552;28;20024;-70
2021/12/11 01:55:29;;;;;;;4.88;3.55;;;;;;;;;;5093051;28;20035;-70
2021/12/11 01:57:56;;;;;;;5.50;3.88;;;;;;;;;;5093861;28;20035;-70
2021/12/11 02:00:29;;;;;;;9.23;4.03;;;;;;;;;;5094141;28;20387;-70
2021/12/11 02:02:57;;;;;;;10.05;4.35;;;;;;;;;;5091848;28;20031;-69
2021/12/11 02:05:25;;;;;;;5.43;4.07;;;;;;;;;;5075539;28;20032;-65
2021/12/11 02:07:52;;;;;;;8.05;4.10;;;;;;;;;;5093525;28;20024;-64
2021/12/11 02:10:20;;;;;;;6.03;3.88;;;;;;;;;;5093277;28;20081;-64
2021/12/11 02:12:46;;;;;;;6.20;4.38;;;;;;;;;;5093629;28;20028;-64
2021/12/11 02:15:18;;;;;;;8.43;4.00;;;;;;;;;;5093566;28;20016;-64
2021/12/11 02:17:51;;;;;;;6.90;4.20;;;;;;;;;;5093145;28;20093;-69
2021/12/11 02:20:21;;;;;;;6.32;4.25;;;;;;;;;;5096192;28;20023;-65
2021/12/11 02:22:48;;;;;;;7.10;4.18;;;;;;;;;;5075310;28;20020;-71
2021/12/11 02:25:23;;;;;;;6.47;4.15;;;;;;;;;;5090016;28;20035;-71
2021/12/11 02:27:54;;;;;;;4.85;3.88;;;;;;;;;;5081294;28;20439;-71
2021/12/11 02:30:25;;;;;;;8.27;4.30;;;;;;;;;;5073512;28;20029;-70
2021/12/11 02:33:03;;;;;;;6.45;4.05;;;;;;;;;;5092237;28;20032;-70
2021/12/11 02:35:38;;;;;;;7.13;4.13;;;;;;;;;;5092039;28;20023;-69
2021/12/11 02:38:14;;;;;;;9.02;4.05;;;;;;;;;;5075041;28;20071;-69
2021/12/11 02:41:01;;;;;;;10.25;3.88;;;;;;;;;;5091521;28;20028;-69
2021/12/11 02:43:33;;;;;;;11.65;4.05;;;;;;;;;;5093229;28;20510;-70
2021/12/11 02:46:06;;;;;;;5.95;3.88;;;;;;;;;;5093190;28;20016;-67
2021/12/11 02:48:45;;;;;;;20.52;4.05;;;;;;;;;;5093515;28;20059;-68
2021/12/11 02:51:15;;;;;;;8.35;3.83;;;;;;;;;;5074943;28;20067;-65
2021/12/11 02:53:45;;;;;;;6.38;4.00;;;;;;;;;;5074890;28;20024;-65
2021/12/11 02:56:32;;;;;;;6.25;3.80;;;;;;;;;;5092532;28;20027;-71
2021/12/11 02:58:59;;;;;;;4.90;3.95;;;;;;;;;;5075179;28;20425;-71
2021/12/11 03:01:28;;;;;;;5.28;3.75;;;;;;;;;;5093451;28;20036;-70
2021/12/11 03:04:09;;;;;;;7.80;3.50;;;;;;;;;;5093242;28;20020;-65
2021/12/11 03:06:41;;;;;;;9.77;4.00;;;;;;;;;;5093257;28;20036;-71
2021/12/11 03:09:08;;;;;;;8.57;3.60;;;;;;;;;;5092964;28;20020;-72
2021/12/11 03:11:34;;;;;;;8.27;3.55;;;;;;;;;;5093124;28;20624;-70
2021/12/11 03:14:03;;;;;;;8.65;3.60;;;;;;;;;;5093237;28;20150;-71
2021/12/11 03:16:31;;;;;;;5.50;3.38;;;;;;;;;;5092859;28;20020;-69
2021/12/11 03:18:58;;;;;;;6.80;3.67;;;;;;;;;;5093053;28;20089;-70
2021/12/11 03:21:24;;;;;;;8.23;3.63;;;;;;;;;;5093216;28;20031;-70
2021/12/11 03:23:51;;;;;;;5.78;3.30;;;;;;;;;;5074754;28;20085;-68
2021/12/11 03:26:17;;;;;;;6.80;3.42;;;;;;;;;;5092716;28;20475;-68
2021/12/11 03:28:43;;;;;;;10.07;3.25;;;;;;;;;;5091843;28;20034;-69
2021/12/11 03:31:09;;;;;;;10.15;3.53;;;;;;;;;;5092856;28;20383;-69
2021/12/11 03:33:46;;;;;;;5.13;2.97;;;;;;;;;;5093033;28;20111;-69
2021/12/11 03:36:13;;;;;;;7.38;3.20;;;;;;;;;;5092888;28;20024;-71
2021/12/11 03:38:42;;;;;;;5.18;3.00;;;;;;;;;;5092904;28;20035;-68
2021/12/11 03:41:09;;;;;;;9.07;3.65;;;;;;;;;;5092451;28;20020;-67
2021/12/11 03:43:35;;;;;;;12.43;3.75;;;;;;;;;;5092674;28;20471;-70
2021/12/11 03:46:02;;;;;;;4.80;3.10;;;;;;;;;;5092870;28;20095;-71
2021/12/11 03:48:33;;;;;;;4.80;3.33;;;;;;;;;;5092928;28;20028;-71
2021/12/11 03:50:59;;;;;;;4.63;3.22;;;;;;;;;;5092773;28;20076;-71
2021/12/11 03:53:25;;;;;;;12.25;3.55;;;;;;;;;;5094777;28;20028;-69
2021/12/11 03:56:01;;;;;;;9.02;3.60;;;;;;;;;;5095702;28;20024;-71
2021/12/11 03:58:28;;;;;;;9.40;3.38;;;;;;;;;;5096138;28;20047;-69
2021/12/11 04:00:57;;;;;;;12.35;3.55;;;;;;;;;;5096181;28;20020;-69
2021/12/11 04:03:27;;;;;;;7.35;3.50;;;;;;;;;;5095985;28;20031;-70
2021/12/11 04:05:54;;;;;;;6.72;3.90;;;;;;;;;;5077791;28;20103;-69
2021/12/11 04:08:21;;;;;;;6.97;3.67;;;;;;;;;;5095941;28;20032;-68
2021/12/11 04:10:49;;;;;;;5.43;3.40;;;;;;;;;;5095766;28;20031;-70
2021/12/11 04:13:15;;;;;;;6.53;3.60;;;;;;;;;;5096002;28;20031;-71
2021/12/11 04:15:43;;;;;;;6.43;3.40;;;;;;;;;;5095892;28;20024;-70
2021/12/11 04:18:09;;;;;;;7.15;4.10;;;;;;;;;;5095756;28;20071;-70
2021/12/11 04:20:39;;;;;;;6.38;3.90;;;;;;;;;;5094726;28;20028;-69
2021/12/11 04:23:05;;;;;;;5.93;4.05;;;;;;;;;;5077294;28;20047;-68
2021/12/11 04:25:32;;;;;;;9.45;4.32;;;;;;;;;;5095560;28;20505;-69
2021/12/11 04:27:58;;;;;;;6.85;4.38;;;;;;;;;;5095468;28;20024;-69
2021/12/11 04:30:26;;;;;;;7.70;3.80;;;;;;;;;;5095611;28;20054;-70
2021/12/11 04:32:53;;;;;;;4.13;3.70;;;;;;;;;;5095375;28;20058;-70
2021/12/11 04:35:20;;;;;;;7.35;4.50;;;;;;;;;;5095212;28;20047;-69
2021/12/11 04:37:46;;;;;;;4.50;3.67;;;;;;;;;;5094235;28;20064;-70
2021/12/11 04:40:19;;;;;;;4.68;3.72;;;;;;;;;;5095269;28;20390;-69
2021/12/11 04:45:16;;;;;;;5.47;4.03;;;;;;;;;;5095215;28;19904;-69
2021/12/11 04:48:31;;;;;;;6.72;4.20;;;;;;;;;;5077287;28;20020;-69
2021/12/11 04:50:42;;;;;;;5.70;4.30;;;;;;;;;;5091704;28;20028;-69
2021/12/11 04:53:26;;;;;;;5.03;4.05;;;;;;;;;;5094251;28;20024;-69
2021/12/11 05:08:59;;;;;;;7.18;4.18;;;;;;;;;;5094426;28;20062;-70
2021/12/11 05:11:13;;;;;;;5.97;4.00;;;;;;;;;;5094730;28;20031;-70
2021/12/11 05:13:40;;;;;;;4.30;3.70;;;;;;;;;;5094634;28;20031;-70
2021/12/11 05:16:09;;;;;;;8.52;3.65;;;;;;;;;;5094767;28;20097;-70
2021/12/11 05:18:36;;;;;;;4.88;3.03;;;;;;;;;;5094646;28;20459;-70
2021/12/11 05:21:06;;;;;;;3.42;2.85;;;;;;;;;;5094594;28;20091;-70
2021/12/11 05:23:32;;;;;;;6.18;3.33;;;;;;;;;;5076459;28;20035;-69
2021/12/11 05:25:59;;;;;;;7.57;3.00;;;;;;;;;;5094641;28;20028;-70
2021/12/11 05:28:25;;;;;;;4.28;2.88;;;;;;;;;;5094592;28;20039;-71
2021/12/11 05:30:52;;;;;;;5.53;2.60;;;;;;;;;;5094477;28;20092;-70
2021/12/11 05:33:19;;;;;;;4.28;2.58;;;;;;;;;;5094796;28;20123;-71
2021/12/11 05:35:45;;;;;;;4.47;2.35;;;;;;;;;;5094237;28;20225;-70
2021/12/11 05:38:12;;;;;;;7.00;2.65;;;;;;;;;;5094280;28;20055;-69
2021/12/11 05:40:41;;;;;;;3.03;1.88;;;;;;;;;;5094526;28;20028;-70
2021/12/11 05:43:07;;;;;;;4.30;2.30;;;;;;;;;;5078213;28;20116;-70
2021/12/11 05:45:33;;;;;;;6.80;2.28;;;;;;;;;;5073703;28;20016;-70
2021/12/11 05:47:59;;;;;;;11.98;2.58;;;;;;;;;;5073787;28;20393;-70
2021/12/11 05:50:27;;;;;;;10.18;2.30;;;;;;;;;;5073720;28;20029;-70
2021/12/11 05:52:53;;;;;;;5.25;2.20;;;;;;;;;;5073839;28;20470;-70
2021/12/11 05:55:20;;;;;;;5.10;1.60;;;;;;;;;;5074120;28;20017;-72
2021/12/11 05:57:52;;;;;;;6.15;1.77;;;;;;;;;;5073655;28;20032;-70
2021/12/11 06:00:19;;;;;;;11.65;2.03;;;;;;;;;;5073755;28;20514;-70
2021/12/11 06:02:45;;;;;;;5.45;1.50;;;;;;;;;;5073862;28;20039;-70
2021/12/11 06:05:12;;;;;;;6.72;1.52;;;;;;;;;;5073838;28;20039;-71
2021/12/11 06:07:42;;;;;;;7.20;1.50;;;;;;;;;;5073581;28;20415;-70
2021/12/11 06:10:10;;;;;;;4.97;1.40;;;;;;;;;;5073843;28;20028;-71
2021/12/11 06:12:37;;;;;;;5.20;1.50;;;;;;;;;;5073904;28;20046;-70
2021/12/11 06:15:04;;;;;;;10.48;1.45;;;;;;;;;;5073021;28;20033;-70
2021/12/11 06:17:31;;;;;;;9.20;1.73;;;;;;;;;;5055248;28;20048;-72
2021/12/11 06:19:58;;;;;;;5.30;1.60;;;;;;;;;;5055379;28;20111;-72
2021/12/11 06:22:26;;;;;;;4.32;1.33;;;;;;;;;;5073478;28;20449;-69
2021/12/11 06:24:53;;;;;;;10.52;1.95;;;;;;;;;;5073353;28;20040;-70
2021/12/11 06:27:19;;;;;;;7.22;1.30;;;;;;;;;;5073387;28;20479;-70
2021/12/11 06:29:45;;;;;;;14.27;1.50;;;;;;;;;;5073362;28;20029;-70
2021/12/11 06:32:11;;;;;;;9.20;1.75;;;;;;;;;;5073302;28;20086;-71
2021/12/11 06:34:38;;;;;;;4.75;1.30;;;;;;;;;;5073345;28;20028;-72
2021/12/11 06:37:04;;;;;;;11.43;1.35;;;;;;;;;;5055249;28;20028;-71
2021/12/11 06:39:31;;;;;;;10.98;1.23;;;;;;;;;;5073161;28;20028;-68
2021/12/11 06:41:58;;;;;;;6.72;1.33;;;;;;;;;;5055216;28;20467;-70
2021/12/11 06:44:28;;;;;;;4.90;1.10;;;;;;;;;;5091203;28;20077;-71
2021/12/11 06:46:55;;;;;;;6.95;1.33;;;;;;;;;;5094046;28;20020;-70
2021/12/11 06:49:22;;;;;;;4.20;1.08;;;;;;;;;;5093486;28;20028;-70
2021/12/11 06:51:48;;;;;;;10.93;1.23;;;;;;;;;;5093169;28;20048;-69
2021/12/11 06:54:14;;;;;;;7.13;1.42;;;;;;;;;;5093030;28;20024;-69
2021/12/11 06:56:41;;;;;;;9.57;1.40;;;;;;;;;;5093357;28;20077;-66
2021/12/11 06:59:08;;;;;;;6.47;1.02;;;;;;;;;;5092858;28;20407;-64
2021/12/11 07:01:34;;;;;;;8.70;1.00;;;;;;;;;;5091599;28;20028;-66
2021/12/11 07:04:01;;;;;;;3.38;1.00;;;;;;;;;;5093357;28;20027;-64
2021/12/11 07:06:28;;;;;;;4.50;1.48;;;;;;;;;;5074774;28;20020;-68
2021/12/11 07:08:54;;;;;;;2.72;0.82;;;;;;;;;;5092977;28;20024;-69
2021/12/11 07:11:22;;;;;;;8.90;1.20;;;;;;;;;;5074679;28;20486;-64
2021/12/11 07:13:48;;;;;;;4.10;1.10;;;;;;;;;;5074721;28;20030;-63
2021/12/11 07:16:15;;;;;;;5.13;1.20;;;;;;;;;;5091712;28;20031;-63
2021/12/11 07:18:41;;;;;;;6.55;0.90;;;;;;;;;;5094178;28;20052;-63
2021/12/11 07:21:07;;;;;;;13.43;1.10;;;;;;;;;;5093317;28;20095;-68
2021/12/11 07:23:34;;;;;;;2.25;1.00;;;;;;;;;;5092925;28;20028;-69
2021/12/11 07:26:12;;;;;;;11.35;1.38;;;;;;;;;;5074828;28;20024;-69
2021/12/11 07:28:39;;;;;;;11.32;1.10;;;;;;;;;;5096527;28;20658;-68
2021/12/11 07:31:05;;;;;;;3.40;0.82;;;;;;;;;;5078304;28;20043;-69
2021/12/11 07:33:30;;;;;;;7.25;1.08;;;;;;;;;;5096503;28;20060;-71
2021/12/11 07:35:56;;;;;;;2.88;1.08;;;;;;;;;;5096968;28;20020;-70
2021/12/11 07:38:22;;;;;;;6.70;0.82;;;;;;;;;;5078132;28;20398;-69
2021/12/11 07:40:54;;;;;;;8.55;0.77;;;;;;;;;;5096275;28;20451;-69
2021/12/11 07:43:21;;;;;;;7.25;1.00;;;;;;;;;;5096302;28;20020;-68
2021/12/11 07:45:48;;;;;;;2.30;0.80;;;;;;;;;;5096078;28;20031;-69
2021/12/11 07:48:14;;;;;;;7.70;0.82;;;;;;;;;;5095901;28;20020;-68
2021/12/11 07:50:40;;;;;;;1.92;0.85;;;;;;;;;;5095992;28;20376;-68
2021/12/11 07:53:06;;;;;;;3.67;0.88;;;;;;;;;;5075457;28;20040;-69
2021/12/11 07:55:32;;;;;;;4.85;0.80;;;;;;;;;;5075420;28;20045;-68
2021/12/11 07:57:59;;;;;;;0.80;0.60;;;;;;;;;;5075298;28;20044;-69
2021/12/11 08:00:26;;;;;;;4.50;0.90;;;;;;;;;;5075334;28;20096;-68
2021/12/11 08:02:52;;;;;;;1.70;0.70;;;;;;;;;;5075007;28;20036;-69
2021/12/11 08:05:18;;;;;;;5.35;0.93;;;;;;;;;;5075209;28;20031;-68
2021/12/11 08:07:45;;;;;;;3.97;0.93;;;;;;;;;;5057096;28;20017;-69
2021/12/11 08:10:15;;;;;;;1.73;0.63;;;;;;;;;;5075154;28;20024;-69
2021/12/11 08:12:41;;;;;;;3.58;0.90;;;;;;;;;;5075043;28;20025;-68
2021/12/11 08:15:09;;;;;;;3.72;0.90;;;;;;;;;;5067226;28;20035;-67
2021/12/11 08:17:34;;;;;;;5.45;0.80;;;;;;;;;;5092041;28;20102;-69
2021/12/11 08:20:01;;;;;;;1.83;0.80;;;;;;;;;;5074965;28;20511;-69
2021/12/11 08:22:27;;;;;;;2.95;1.00;;;;;;;;;;5074879;28;20116;-69
2021/12/11 08:24:53;;;;;;;4.68;1.00;;;;;;;;;;5074837;28;20044;-69
2021/12/11 08:27:21;;;;;;;2.97;0.80;;;;;;;;;;5057038;28;20107;-70
2021/12/11 08:29:49;;;;;;;2.78;0.90;;;;;;;;;;5075055;28;20031;-68
2021/12/11 08:32:15;;;;;;;3.38;0.93;;;;;;;;;;5074741;28;20036;-69
2021/12/11 08:34:42;;;;;;;4.22;1.02;;;;;;;;;;5074883;28;20077;-70
2021/12/11 08:37:10;;;;;;;2.20;0.90;;;;;;;;;;5074803;28;20023;-71
2021/12/11 08:39:36;;;;;;;2.08;1.02;;;;;;;;;;5074074;28;20161;-69
2021/12/11 08:42:04;;;;;;;5.90;0.90;;;;;;;;;;5074427;28;20021;-68
2021/12/11 08:44:35;;;;;;;3.53;1.25;;;;;;;;;;5074872;28;20025;-70
2021/12/11 08:47:02;;;;;;;3.65;1.38;;;;;;;;;;5074902;28;20361;-73
2021/12/11 08:49:30;;;;;;;4.57;2.03;;;;;;;;;;5074888;28;20460;-65
2021/12/11 08:51:57;;;;;;;3.47;1.75;;;;;;;;;;5089939;28;20020;-69
2021/12/11 08:54:25;;;;;;;4.78;1.67;;;;;;;;;;5076711;28;20036;-69
2021/12/11 08:56:51;;;;;;;6.25;1.75;;;;;;;;;;5094682;28;20058;-72
2021/12/11 08:59:19;;;;;;;5.30;1.77;;;;;;;;;;5094571;28;20032;-70
2021/12/11 09:02:08;;;;;;;4.28;1.35;;;;;;;;;;5076356;28;20052;-71
2021/12/11 09:04:37;;;;;;;6.43;1.50;;;;;;;;;;5086608;28;20046;-70
2021/12/11 09:07:06;;;;;;;7.63;1.42;;;;;;;;;;5093037;28;20020;-70
2021/12/11 09:09:55;;;;;;;4.07;1.70;;;;;;;;;;5074202;28;20020;-69
2021/12/11 09:12:28;;;;;;;8.15;1.55;;;;;;;;;;5063731;28;20059;-65
2021/12/11 09:15:07;;;;;;;5.57;1.60;;;;;;;;;;5087892;28;20036;-70
2021/12/11 09:17:33;;;;;;;3.30;1.60;;;;;;;;;;5094013;28;20048;-70
2021/12/11 09:20:03;;;;;;;5.85;1.80;;;;;;;;;;5094274;28;20393;-71
2021/12/11 09:22:31;;;;;;;3.53;1.45;;;;;;;;;;5094364;28;20036;-70
2021/12/11 09:25:02;;;;;;;3.38;1.45;;;;;;;;;;5093444;28;20031;-69
2021/12/11 09:27:31;;;;;;;1.75;1.25;;;;;;;;;;5094103;28;20028;-70
2021/12/11 09:30:00;;;;;;;7.65;1.75;;;;;;;;;;5094180;28;20223;-69
2021/12/11 09:32:44;;;;;;;4.60;1.80;;;;;;;;;;5094164;28;20028;-70
2021/12/11 09:35:10;;;;;;;4.38;1.70;;;;;;;;;;5094023;28;20107;-69
2021/12/11 09:37:36;;;;;;;1.92;1.40;;;;;;;;;;5093826;28;20061;-65
2021/12/11 09:40:08;;;;;;;3.67;1.50;;;;;;;;;;5093847;28;20365;-70
2021/12/11 09:42:34;;;;;;;5.47;1.40;;;;;;;;;;5076798;28;20040;-71
2021/12/11 09:45:06;;;;;;;3.08;1.50;;;;;;;;;;5094069;28;20047;-71
2021/12/11 09:47:35;;;;;;;4.18;1.58;;;;;;;;;;5075546;28;20332;-70
2021/12/11 09:50:08;;;;;;;3.95;1.60;;;;;;;;;;5093372;28;20464;-69
2021/12/11 09:52:36;;;;;;;3.78;1.70;;;;;;;;;;5073613;28;20024;-69
2021/12/11 09:55:23;;;;;;;2.78;1.67;;;;;;;;;;5073213;28;20039;-70
2021/12/11 09:57:52;;;;;;;3.45;1.80;;;;;;;;;;5075201;28;20040;-68
2021/12/11 10:00:18;;;;;;;4.43;1.80;;;;;;;;;;5092659;28;20088;-68
2021/12/11 10:02:44;;;;;;;3.65;1.90;;;;;;;;;;5093155;28;20414;-67
2021/12/11 10:05:28;;;;;;;1.95;1.40;;;;;;;;;;5092665;28;20034;-68
2021/12/11 10:08:02;;;;;;;5.00;1.80;;;;;;;;;;5091465;28;20031;-68
2021/12/11 10:10:28;;;;;;;6.38;1.60;;;;;;;;;;5092788;28;20077;-67
2021/12/11 10:12:56;;;;;;;3.72;2.03;;;;;;;;;;5073461;28;20522;-68
2021/12/11 10:15:24;;;;;;;5.72;2.15;;;;;;;;;;5061749;28;20024;-68
2021/12/11 10:18:00;;;;;;;4.30;1.52;;;;;;;;;;5092664;28;20122;-68
2021/12/11 10:20:35;;;;;;;3.35;1.73;;;;;;;;;;5074901;28;20036;-67
2021/12/11 10:23:03;;;;;;;2.83;1.80;;;;;;;;;;5075270;28;20086;-67
2021/12/11 10:25:31;;;;;;;2.17;1.63;;;;;;;;;;5092937;28;20471;-66
2021/12/11 10:28:00;;;;;;;2.10;1.80;;;;;;;;;;5075171;28;20081;-71
2021/12/11 10:30:26;;;;;;;3.13;1.75;;;;;;;;;;5093652;28;20024;-69
2021/12/11 10:32:54;;;;;;;3.05;1.77;;;;;;;;;;5093190;28;20032;-73
2021/12/11 10:35:23;;;;;;;2.90;1.65;;;;;;;;;;5075429;28;20030;-72
2021/12/11 10:37:49;;;;;;;7.68;2.00;;;;;;;;;;5093988;28;20038;-70
2021/12/11 10:40:31;;;;;;;4.80;1.83;;;;;;;;;;5075029;28;20024;-70
2021/12/11 10:43:03;;;;;;;9.25;2.25;;;;;;;;;;5093040;28;20024;-69
2021/12/11 10:45:29;;;;;;;5.97;3.25;;;;;;;;;;5093053;28;20030;-71
2021/12/11 10:47:57;;;;;;;7.45;2.38;;;;;;;;;;5092870;28;20115;-71
2021/12/11 10:50:23;;;;;;;4.18;2.15;;;;;;;;;;5092281;28;20076;-71
2021/12/11 10:52:49;;;;;;;6.57;2.10;;;;;;;;;;5093143;28;20032;-70
2021/12/11 10:55:17;;;;;;;6.75;2.25;;;;;;;;;;5092893;28;20089;-72
2021/12/11 10:57:43;;;;;;;5.60;2.10;;;;;;;;;;5092739;28;20121;-71
2021/12/11 11:00:14;;;;;;;8.50;2.42;;;;;;;;;;5074589;28;20024;-72
2021/12/11 11:02:40;;;;;;;7.38;2.63;;;;;;;;;;5077338;28;20031;-71
2021/12/11 11:05:11;;;;;;;7.40;2.47;;;;;;;;;;5078466;28;20012;-72
2021/12/11 11:07:38;;;;;;;10.07;2.50;;;;;;;;;;5096162;28;20031;-71
2021/12/11 11:10:06;;;;;;;6.15;2.30;;;;;;;;;;5096735;28;20035;-71
2021/12/11 11:12:32;;;;;;;4.90;2.42;;;;;;;;;;5096696;28;20099;-72
2021/12/11 11:14:58;;;;;;;3.80;2.05;;;;;;;;;;5096549;28;20024;-71
2021/12/11 11:17:26;;;;;;;5.20;2.28;;;;;;;;;;5096342;28;20386;-71
2021/12/11 11:19:52;;;;;;;5.15;2.10;;;;;;;;;;5096697;28;20391;-73
2021/12/11 11:22:20;;;;;;;3.80;1.98;;;;;;;;;;5095722;28;20077;-71
2021/12/11 11:24:51;;;;;;;4.75;2.15;;;;;;;;;;5096582;28;20035;-72
2021/12/11 11:27:17;;;;;;;4.80;2.05;;;;;;;;;;5096472;28;20039;-71
2021/12/11 11:29:44;;;;;;;4.07;2.13;;;;;;;;;;5077904;28;20479;-70
2021/12/11 11:32:13;;;;;;;7.53;2.10;;;;;;;;;;5096168;28;20028;-70
2021/12/11 11:34:41;;;;;;;4.35;2.05;;;;;;;;;;5078349;28;20067;-71
2021/12/11 11:37:12;;;;;;;6.20;2.22;;;;;;;;;;5078137;28;20444;-71
2021/12/11 11:39:39;;;;;;;3.53;1.40;;;;;;;;;;5092222;28;20107;-71
2021/12/11 11:42:08;;;;;;;6.15;1.95;;;;;;;;;;5075928;28;20032;-70
2021/12/11 11:44:34;;;;;;;4.70;2.08;;;;;;;;;;5075789;28;20031;-71
2021/12/11 11:47:01;;;;;;;5.57;2.28;;;;;;;;;;5075950;28;20024;-71
2021/12/11 11:49:28;;;;;;;5.88;1.92;;;;;;;;;;5057838;28;20032;-70
2021/12/11 11:51:56;;;;;;;6.47;1.80;;;;;;;;;;5075650;28;20139;-71
2021/12/11 11:54:24;;;;;;;7.43;2.15;;;;;;;;;;5057516;28;20035;-72
2021/12/11 11:56:53;;;;;;;5.82;1.98;;;;;;;;;;5057630;28;20021;-71
2021/12/11 11:59:19;;;;;;;5.38;1.80;;;;;;;;;;5075770;28;20039;-71
2021/12/11 12:01:48;;;;;;;5.65;2.20;;;;;;;;;;5075312;28;20411;-71
2021/12/11 12:04:16;;;;;;;6.05;1.73;;;;;;;;;;5075482;28;20036;-72
2021/12/11 12:06:46;;;;;;;9.25;2.45;;;;;;;;;;5075745;28;20036;-71
2021/12/11 12:09:13;;;;;;;7.82;1.90;;;;;;;;;;5075895;28;20031;-71
2021/12/11 12:11:40;;;;;;;5.95;1.85;;;;;;;;;;5075201;28;20024;-71
2021/12/11 12:14:08;;;;;;;3.78;1.30;;;;;;;;;;5074237;28;20095;-71
2021/12/11 12:16:35;;;;;;;6.47;1.55;;;;;;;;;;5087792;28;20024;-71
2021/12/11 12:19:01;;;;;;;5.07;1.58;;;;;;;;;;5095378;28;20047;-71
2021/12/11 12:21:29;;;;;;;5.15;1.88;;;;;;;;;;5095222;28;20047;-69
2021/12/11 12:23:55;;;;;;;3.38;1.30;;;;;;;;;;5095332;28;20464;-70
2021/12/11 12:26:24;;;;;;;7.32;2.22;;;;;;;;;;5095140;28;20026;-70
2021/12/11 12:28:51;;;;;;;7.53;1.98;;;;;;;;;;5095164;28;20476;-69
2021/12/11 12:31:20;;;;;;;4.88;1.58;;;;;;;;;;5095165;28;20451;-69
2021/12/11 12:33:46;;;;;;;5.85;1.90;;;;;;;;;;5095059;28;20025;-70
2021/12/11 12:36:12;;;;;;;7.90;1.58;;;;;;;;;;5095458;28;20046;-70
2021/12/11 12:38:39;;;;;;;4.95;1.60;;;;;;;;;;5094995;28;20458;-70
2021/12/11 12:41:34;;;;;;;6.18;1.60;;;;;;;;;;5083926;28;20035;-71
2021/12/11 12:46:37;;;;;;;7.32;1.83;;;;;;;;;;5075088;28;20101;-71
2021/12/11 12:49:04;;;;;;;3.90;1.35;;;;;;;;;;5074513;28;20039;-71
2021/12/11 12:51:31;;;;;;;6.00;1.23;;;;;;;;;;5074477;28;20032;-72
2021/12/11 12:53:58;;;;;;;7.20;1.58;;;;;;;;;;5074675;28;20032;-71
2021/12/11 12:56:26;;;;;;;4.93;1.50;;;;;;;;;;5074426;28;20016;-71
2021/12/11 12:59:01;;;;;;;3.63;1.30;;;;;;;;;;5074486;28;20438;-71
2021/12/11 13:01:34;;;;;;;4.32;1.40;;;;;;;;;;5074689;28;20111;-71
2021/12/11 13:04:02;;;;;;;3.83;1.38;;;;;;;;;;5056185;28;20036;-71
2021/12/11 13:06:31;;;;;;;6.57;1.60;;;;;;;;;;5074491;28;20113;-70
2021/12/11 13:08:59;;;;;;;5.68;1.70;;;;;;;;;;5056477;28;20052;-71
2021/12/11 13:11:25;;;;;;;5.88;1.55;;;;;;;;;;5074409;28;20102;-71
2021/12/11 13:13:52;;;;;;;4.68;1.25;;;;;;;;;;5073512;28;20464;-71
2021/12/11 13:16:29;;;;;;;5.38;1.52;;;;;;;;;;5056529;28;20029;-70
2021/12/11 13:18:57;;;;;;;4.35;1.35;;;;;;;;;;5091855;28;20055;-68
2021/12/11 13:21:28;;;;;;;5.80;1.55;;;;;;;;;;5114649;28;20030;-71
2021/12/11 13:23:57;;;;;;;6.53;1.55;;;;;;;;;;5114794;28;20054;-70
2021/12/11 13:26:25;;;;;;;5.85;1.42;;;;;;;;;;5095915;28;20019;-71
2021/12/11 13:28:55;;;;;;;4.22;1.60;;;;;;;;;;5114238;28;20023;-71
2021/12/11 13:31:25;;;;;;;3.85;1.33;;;;;;;;;;5078307;28;20016;-70
2021/12/11 13:33:51;;;;;;;5.47;1.30;;;;;;;;;;5073532;28;20487;-70
2021/12/11 13:36:20;;;;;;;2.97;1.00;;;;;;;;;;5073588;28;20036;-69
2021/12/11 13:38:46;;;;;;;5.30;1.50;;;;;;;;;;5055502;28;20464;-71
2021/12/11 13:41:15;;;;;;;4.20;1.25;;;;;;;;;;5073624;28;20562;-68
2021/12/11 13:43:41;;;;;;;5.53;1.52;;;;;;;;;;5073406;28;20032;-70
2021/12/11 13:46:08;;;;;;;6.03;1.67;;;;;;;;;;5073462;28;20021;-70
2021/12/11 13:48:35;;;;;;;5.03;1.55;;;;;;;;;;5055281;28;20123;-72
2021/12/11 13:51:10;;;;;;;2.83;1.02;;;;;;;;;;5073229;28;20024;-71
2021/12/11 13:53:38;;;;;;;5.45;1.27;;;;;;;;;;5055674;28;20025;-69
2021/12/11 13:56:05;;;;;;;5.53;1.33;;;;;;;;;;5073173;28;20020;-70
2021/12/11 13:58:31;;;;;;;5.45;1.40;;;;;;;;;;5055334;28;20032;-71
2021/12/11 14:00:59;;;;;;;6.93;1.38;;;;;;;;;;5073143;28;20028;-71
2021/12/11 14:03:26;;;;;;;4.38;1.23;;;;;;;;;;5073238;28;20028;-70
2021/12/11 14:05:57;;;;;;;4.00;1.45;;;;;;;;;;5073747;28;20036;-74
2021/12/11 14:08:23;;;;;;;5.18;1.20;;;;;;;;;;5074112;28;20387;-70
2021/12/11 14:12:10;;;;;;;8.73;1.67;;;;;;;;;;5089497;27;20398;-65
2021/12/11 14:14:37;;;;;;;29.42;2.40;;;;;;;;;;5071393;28;20025;-78
2021/12/11 14:17:04;;;;;;;10.82;1.77;;;;;;;;;;5072501;28;20028;-77
2021/12/11 14:19:30;;;;;;;18.60;2.40;;;;;;;;;;5068589;28;20086;-70
2021/12/11 14:22:01;;;;;;;34.72;2.78;;;;;;;;;;5070864;28;20029;-74
2021/12/11 14:24:33;;;;;;;25.73;2.17;;;;;;;;;;5073891;28;20021;-78
2021/12/11 14:27:02;;;;;;;15.17;1.97;;;;;;;;;;5074019;28;20039;-77
2021/12/11 14:29:28;;;;;;;23.25;1.83;;;;;;;;;;5073655;28;20379;-78
2021/12/11 14:31:54;;;;;;;17.50;2.35;;;;;;;;;;5073706;28;20029;-78
2021/12/11 14:34:20;;;;;;;23.15;2.08;;;;;;;;;;5074187;28;20032;-81
2021/12/11 14:36:47;;;;;;;16.63;1.95;;;;;;;;;;5073288;28;20029;-79
2021/12/11 14:39:15;;;;;;;11.85;2.15;;;;;;;;;;5074286;28;20039;-78
2021/12/11 14:41:44;;;;;;;10.05;1.77;;;;;;;;;;5073969;28;20029;-77
2021/12/11 14:44:13;;;;;;;14.25;1.80;;;;;;;;;;5073609;28;20033;-79
2021/12/11 14:46:39;;;;;;;12.27;1.60;;;;;;;;;;5073509;28;20066;-79
2021/12/11 14:49:06;;;;;;;13.73;1.83;;;;;;;;;;5072705;28;20024;-75
2021/12/11 14:51:32;;;;;;;13.68;1.90;;;;;;;;;;5072531;28;20080;-78
2021/12/11 14:53:59;;;;;;;15.38;2.13;;;;;;;;;;5073620;28;20039;-80
2021/12/11 14:56:29;;;;;;;13.40;2.13;;;;;;;;;;5073626;28;20029;-79
2021/12/11 14:58:56;;;;;;;13.07;2.00;;;;;;;;;;5073240;28;20383;-80
2021/12/11 15:01:24;;;;;;;12.73;2.15;;;;;;;;;;5072115;28;20024;-75
2021/12/11 15:03:51;;;;;;;20.17;1.85;;;;;;;;;;5071617;28;20108;-77
2021/12/11 15:06:17;;;;;;;6.95;1.63;;;;;;;;;;5073131;28;20091;-76
2021/12/11 15:08:44;;;;;;;8.65;1.58;;;;;;;;;;5072707;28;20025;-76
2021/12/11 15:11:12;;;;;;;10.57;1.50;;;;;;;;;;5019556;28;20047;-70